createdAt,value
2018-07-05T00:00:24.079Z,18.70
2018-07-05T00:03:28.624Z,18.70
2018-07-05T00:06:33.260Z,18.70
2018-07-05T00:09:37.504Z,18.70
2018-07-05T00:12:42.228Z,18.70
2018-07-05T00:15:46.429Z,18.60
2018-07-05T00:18:50.783Z,18.60
2018-07-05T00:21:55.340Z,18.60
2018-07-05T00:24:59.878Z,18.60
2018-07-05T00:28:04.196Z,18.60
2018-07-05T00:31:08.795Z,18.50
2018-07-05T00:34:13.159Z,18.50
2018-07-05T00:37:17.398Z,18.50
2018-07-05T00:40:22.417Z,18.50
2018-07-05T00:43:26.822Z,18.50
2018-07-05T00:46:30.992Z,18.50
2018-07-05T00:49:35.989Z,18.50
2018-07-05T00:52:40.911Z,18.40
2018-07-05T00:55:45.265Z,18.40
2018-07-05T00:58:49.464Z,18.40
2018-07-05T01:01:53.940Z,18.40
2018-07-05T01:04:59.694Z,18.40
2018-07-05T01:11:02.437Z,18.50
2018-07-05T01:14:06.740Z,18.50
2018-07-05T01:17:12.275Z,18.60
2018-07-05T01:20:16.529Z,18.50
2018-07-05T01:23:21.015Z,18.50
2018-07-05T01:26:26.344Z,18.50
2018-07-05T01:29:30.724Z,18.50
2018-07-05T01:32:35.908Z,18.50
2018-07-05T01:35:42.009Z,18.50
2018-07-05T01:38:46.553Z,18.40
2018-07-05T01:41:51.052Z,18.50
2018-07-05T01:44:55.299Z,18.50
2018-07-05T01:47:59.717Z,18.60
2018-07-05T01:51:04.066Z,18.50
2018-07-05T01:54:08.887Z,18.50
2018-07-05T01:57:13.112Z,18.50
2018-07-05T02:03:41.400Z,18.40
2018-07-05T02:06:45.525Z,18.30
2018-07-05T02:09:50.602Z,18.30
2018-07-05T02:12:54.928Z,18.30
2018-07-05T02:15:59.377Z,18.40
2018-07-05T02:19:04.230Z,18.40
2018-07-05T02:22:08.493Z,18.40
2018-07-05T02:25:13.661Z,18.40
2018-07-05T02:28:17.993Z,18.40
2018-07-05T02:31:22.183Z,18.40
2018-07-05T02:34:27.824Z,18.50
2018-07-05T02:37:37.355Z,18.40
2018-07-05T02:40:41.792Z,18.50
2018-07-05T02:43:46.189Z,18.50
2018-07-05T02:46:51.725Z,18.40
2018-07-05T02:49:56.220Z,18.50
2018-07-05T02:53:00.620Z,18.50
2018-07-05T02:56:04.884Z,18.50
2018-07-05T02:59:09.179Z,18.50
2018-07-05T03:02:13.461Z,18.50
2018-07-05T03:05:17.640Z,18.50
2018-07-05T03:08:21.925Z,18.50
2018-07-05T03:11:26.414Z,18.50
2018-07-05T03:14:31.759Z,18.50
2018-07-05T03:17:36.953Z,18.60
2018-07-05T03:20:43.374Z,18.50
2018-07-05T03:23:47.686Z,18.50
2018-07-05T03:26:53.716Z,18.50
2018-07-05T03:29:58.110Z,18.50
2018-07-05T03:33:02.285Z,18.40
2018-07-05T03:36:06.820Z,18.40
2018-07-05T03:39:11.200Z,18.50
2018-07-05T03:42:16.517Z,18.40
2018-07-05T03:45:26.345Z,18.40
2018-07-05T03:48:31.283Z,18.50
2018-07-05T03:51:37.579Z,18.50
2018-07-05T03:54:43.964Z,18.50
2018-07-05T03:57:49.292Z,18.60
2018-07-05T04:00:54.367Z,18.70
2018-07-05T04:03:58.898Z,18.80
2018-07-05T04:07:04.593Z,18.80
2018-07-05T04:10:08.900Z,18.80
2018-07-05T04:16:11.680Z,18.90
2018-07-05T04:19:15.963Z,18.90
2018-07-05T04:22:20.718Z,19.00
2018-07-05T04:25:26.430Z,19.00
2018-07-05T04:28:31.034Z,19.10
2018-07-05T04:31:36.256Z,19.10
2018-07-05T04:34:41.238Z,19.20
2018-07-05T04:37:46.243Z,19.20
2018-07-05T04:40:52.090Z,19.20
2018-07-05T04:43:57.276Z,19.20
2018-07-05T04:47:01.928Z,19.20
2018-07-05T04:50:07.735Z,19.20
2018-07-05T04:53:12.243Z,19.30
2018-07-05T04:56:17.132Z,19.30
2018-07-05T04:59:24.201Z,19.40
2018-07-05T05:02:29.648Z,19.50
2018-07-05T05:05:34.343Z,19.50
2018-07-05T05:08:40.950Z,19.60
2018-07-05T05:11:46.017Z,19.70
2018-07-05T05:14:51.215Z,19.70
2018-07-05T05:17:56.484Z,19.80
2018-07-05T05:21:03.062Z,19.80
2018-07-05T05:24:07.497Z,19.80
2018-07-05T05:27:11.856Z,19.80
2018-07-05T05:30:16.220Z,19.80
2018-07-05T05:33:21.513Z,19.90
2018-07-05T05:39:26.413Z,20.10
2018-07-05T05:42:30.791Z,20.20
2018-07-05T05:45:35.344Z,20.20
2018-07-05T05:48:41.869Z,20.30
2018-07-05T05:51:46.280Z,20.40
2018-07-05T05:54:51.564Z,20.50
2018-07-05T05:57:57.602Z,20.60
2018-07-05T06:01:01.837Z,20.60
2018-07-05T06:04:06.026Z,20.70
2018-07-05T06:07:10.418Z,20.70
2018-07-05T06:10:14.846Z,20.80
2018-07-05T06:13:20.495Z,20.90
2018-07-05T06:16:24.860Z,21.00
2018-07-05T06:19:29.232Z,21.10
2018-07-05T06:22:34.174Z,21.20
2018-07-05T06:25:39.083Z,21.20
2018-07-05T06:28:43.566Z,21.30
2018-07-05T06:34:46.554Z,21.50
2018-07-05T06:37:51.532Z,21.60
2018-07-05T06:40:56.206Z,21.70
2018-07-05T06:44:00.616Z,21.80
2018-07-05T06:47:04.865Z,22.00
2018-07-05T06:50:09.207Z,22.20
2018-07-05T06:53:13.731Z,22.40
2018-07-05T06:56:18.179Z,22.50
2018-07-05T06:59:24.149Z,22.60
2018-07-05T07:02:28.747Z,22.80
2018-07-05T07:05:34.133Z,22.90
2018-07-05T07:08:38.420Z,23.00
2018-07-05T07:11:43.797Z,23.20
2018-07-05T07:14:48.301Z,23.40
2018-07-05T07:17:53.510Z,23.60
2018-07-05T07:20:58.288Z,23.80
2018-07-05T07:24:04.104Z,24.10
2018-07-05T07:27:09.285Z,24.30
2018-07-05T07:30:15.332Z,24.40
2018-07-05T07:33:21.530Z,24.60
2018-07-05T07:36:26.232Z,24.90
2018-07-05T07:39:32.656Z,25.30
2018-07-05T07:42:18.624Z,25.80
2018-07-05T07:44:58.561Z,26.00
2018-07-05T07:47:38.265Z,26.30
2018-07-05T07:50:17.874Z,26.40
2018-07-05T07:52:58.455Z,26.40
2018-07-05T07:55:38.007Z,26.60
2018-07-05T07:58:17.992Z,26.80
2018-07-05T08:00:58.249Z,27.20
2018-07-05T08:03:39.664Z,27.60
2018-07-05T08:06:21.565Z,28.00
2018-07-05T08:09:01.381Z,28.30
2018-07-05T08:11:46.361Z,28.50
2018-07-05T08:14:27.012Z,28.80
2018-07-05T08:17:07.308Z,28.90
2018-07-05T08:19:46.920Z,29.00
2018-07-05T08:22:27.628Z,29.10
2018-07-05T08:25:07.236Z,29.30
2018-07-05T08:27:48.492Z,29.60
2018-07-05T08:30:28.437Z,29.80
2018-07-05T08:33:08.044Z,29.90
2018-07-05T08:35:47.589Z,29.80
2018-07-05T08:38:27.189Z,29.70
2018-07-05T08:41:08.091Z,29.70
2018-07-05T08:43:48.854Z,29.80
2018-07-05T08:46:28.727Z,30.00
2018-07-05T08:49:08.284Z,30.20
2018-07-05T08:51:48.322Z,30.20
2018-07-05T08:54:28.297Z,30.30
2018-07-05T08:57:07.924Z,30.30
2018-07-05T08:59:47.568Z,30.30
2018-07-05T09:05:06.939Z,30.20
2018-07-05T09:07:46.588Z,30.30
2018-07-05T09:10:26.306Z,30.50
2018-07-05T09:13:05.890Z,30.70
2018-07-05T09:15:45.435Z,30.80
2018-07-05T09:18:28.058Z,30.70
2018-07-05T09:21:09.392Z,30.60
2018-07-05T09:23:49.245Z,30.60
2018-07-05T09:26:29.117Z,30.50
2018-07-05T09:29:08.788Z,30.40
2018-07-05T09:31:49.307Z,30.10
2018-07-05T09:34:29.859Z,29.80
2018-07-05T09:37:09.372Z,29.70
2018-07-05T09:39:50.387Z,29.80
2018-07-05T09:42:30.728Z,29.70
2018-07-05T09:45:10.247Z,29.60
2018-07-05T09:47:50.458Z,29.50
2018-07-05T09:50:30.192Z,29.30
2018-07-05T09:53:10.557Z,29.30
2018-07-05T09:55:51.688Z,29.30
2018-07-05T09:58:31.173Z,29.40
2018-07-05T10:01:11.760Z,29.40
2018-07-05T10:03:51.864Z,29.30
2018-07-05T10:06:32.421Z,29.20
2018-07-05T10:09:13.524Z,29.20
2018-07-05T10:11:53.241Z,29.30
2018-07-05T10:14:32.727Z,29.30
2018-07-05T10:17:12.380Z,29.40
2018-07-05T10:19:52.116Z,29.40
2018-07-05T10:22:31.689Z,29.30
2018-07-05T10:25:11.193Z,29.30
2018-07-05T10:27:51.973Z,29.40
2018-07-05T10:30:51.919Z,29.40
2018-07-05T10:33:46.785Z,29.40
2018-07-05T10:36:26.516Z,29.30
2018-07-05T10:39:06.056Z,29.30
2018-07-05T10:42:07.141Z,29.40
2018-07-05T10:45:17.843Z,29.30
2018-07-05T10:48:24.300Z,29.30
2018-07-05T10:51:28.807Z,29.20
2018-07-05T10:54:35.195Z,29.30
2018-07-05T10:57:40.580Z,29.30
2018-07-05T11:00:45.584Z,29.30
2018-07-05T11:03:50.411Z,29.20
2018-07-05T11:06:55.080Z,29.20
2018-07-05T11:09:59.484Z,29.20
2018-07-05T11:13:03.957Z,29.30
2018-07-05T11:16:08.533Z,29.20
2018-07-05T11:19:14.671Z,29.10
2018-07-05T11:22:20.417Z,28.90
2018-07-05T11:25:25.653Z,28.90
2018-07-05T11:28:31.112Z,29.00
2018-07-05T11:31:38.918Z,29.10
2018-07-05T11:34:43.457Z,29.10
2018-07-05T11:37:48.573Z,29.00
2018-07-05T11:40:53.250Z,29.00
2018-07-05T11:43:57.762Z,29.00
2018-07-05T11:50:02.948Z,28.90
2018-07-05T11:53:07.422Z,29.00
2018-07-05T11:56:11.736Z,29.00
2018-07-05T11:59:16.041Z,29.00
2018-07-05T12:02:21.240Z,29.10
2018-07-05T12:05:26.396Z,29.10
2018-07-05T12:08:31.691Z,29.20
2018-07-05T12:11:36.799Z,29.10
2018-07-05T12:14:41.166Z,29.10
2018-07-05T12:17:45.636Z,29.10
2018-07-05T12:20:50.696Z,29.00
2018-07-05T12:23:56.197Z,28.90
2018-07-05T12:27:01.085Z,28.80
2018-07-05T12:30:05.989Z,28.80
2018-07-05T12:33:10.519Z,28.90
2018-07-05T12:36:15.277Z,28.90
2018-07-05T12:39:20.422Z,29.00
2018-07-05T12:42:27.067Z,29.00
2018-07-05T12:45:31.400Z,29.00
2018-07-05T12:48:35.825Z,29.00
2018-07-05T12:51:40.304Z,28.90
2018-07-05T12:54:46.591Z,28.80
2018-07-05T12:57:53.692Z,28.90
2018-07-05T13:00:57.816Z,28.90
2018-07-05T13:04:02.227Z,28.90
2018-07-05T13:07:06.668Z,28.80
2018-07-05T13:10:12.206Z,28.80
2018-07-05T13:16:14.964Z,28.80
2018-07-05T13:19:20.286Z,28.80
2018-07-05T13:22:24.914Z,28.80
2018-07-05T13:25:29.413Z,28.90
2018-07-05T13:28:34.217Z,28.90
2018-07-05T13:31:38.730Z,28.90
2018-07-05T13:34:43.045Z,28.90
2018-07-05T13:37:47.428Z,28.80
2018-07-05T13:40:56.894Z,28.90
2018-07-05T13:44:02.116Z,28.80
2018-07-05T13:47:08.918Z,28.80
2018-07-05T13:50:16.111Z,28.80
2018-07-05T13:53:21.355Z,28.90
2018-07-05T13:56:26.064Z,28.90
2018-07-05T13:59:31.036Z,28.90
2018-07-05T14:02:37.574Z,28.90
2018-07-05T14:05:43.527Z,28.90
2018-07-05T14:08:48.444Z,28.90
2018-07-05T14:11:54.589Z,28.90
2018-07-05T14:14:59.188Z,28.90
2018-07-05T14:18:03.995Z,28.90
2018-07-05T14:21:08.674Z,28.80
2018-07-05T14:24:13.417Z,28.80
2018-07-05T14:27:17.884Z,28.90
2018-07-05T14:30:24.075Z,28.90
2018-07-05T14:33:28.576Z,28.80
2018-07-05T14:36:33.049Z,28.80
2018-07-05T14:39:37.988Z,28.80
2018-07-05T14:42:43.410Z,28.70
2018-07-05T14:45:47.966Z,28.70
2018-07-05T14:48:54.392Z,28.70
2018-07-05T14:51:59.677Z,28.70
2018-07-05T14:55:04.104Z,28.70
2018-07-05T14:58:08.824Z,28.70
2018-07-05T15:01:14.024Z,28.70
2018-07-05T15:04:19.013Z,28.70
2018-07-05T15:07:24.384Z,28.70
2018-07-05T15:10:31.400Z,28.70
2018-07-05T15:13:35.872Z,28.70
2018-07-05T15:16:41.099Z,28.70
2018-07-05T15:19:50.443Z,28.70
2018-07-05T15:22:56.924Z,28.70
2018-07-05T15:26:01.226Z,28.70
2018-07-05T15:29:06.779Z,28.70
2018-07-05T15:32:11.295Z,28.70
2018-07-05T15:35:15.762Z,28.60
2018-07-05T15:38:20.525Z,28.50
2018-07-05T15:41:24.900Z,28.60
2018-07-05T15:44:30.366Z,28.70
2018-07-05T15:47:34.751Z,28.70
2018-07-05T15:50:41.101Z,28.60
2018-07-05T15:53:45.581Z,28.60
2018-07-05T15:56:50.348Z,28.50
2018-07-05T15:59:54.861Z,28.50
2018-07-05T16:03:01.700Z,28.50
2018-07-05T16:06:08.221Z,28.40
2018-07-05T16:09:13.032Z,28.40
2018-07-05T16:12:17.697Z,28.40
2018-07-05T16:15:22.355Z,28.30
2018-07-05T16:18:26.823Z,28.30
2018-07-05T16:21:31.381Z,28.40
2018-07-05T16:24:36.651Z,28.40
2018-07-05T16:27:42.388Z,28.40
2018-07-05T16:30:48.624Z,28.30
2018-07-05T16:33:55.281Z,28.30
2018-07-05T16:36:59.790Z,28.20
2018-07-05T16:40:05.760Z,28.20
2018-07-05T16:43:11.197Z,28.20
2018-07-05T16:46:15.724Z,28.20
2018-07-05T16:49:22.102Z,28.10
2018-07-05T16:52:27.564Z,28.00
2018-07-05T16:58:30.493Z,27.90
2018-07-05T17:01:34.919Z,27.90
2018-07-05T17:04:40.279Z,27.90
2018-07-05T17:07:45.776Z,27.80
2018-07-05T17:10:51.801Z,27.80
2018-07-05T17:14:04.051Z,27.70
2018-07-05T17:17:09.280Z,27.70
2018-07-05T17:20:15.331Z,27.60
2018-07-05T17:23:21.035Z,27.60
2018-07-05T17:26:28.228Z,27.60
2018-07-05T17:29:32.873Z,27.50
2018-07-05T17:32:38.419Z,27.50
2018-07-05T17:38:41.295Z,27.40
2018-07-05T17:41:47.987Z,27.40
2018-07-05T17:44:54.558Z,27.30
2018-07-05T17:48:03.216Z,27.20
2018-07-05T17:51:07.619Z,27.10
2018-07-05T17:54:11.977Z,27.10
2018-07-05T17:57:16.452Z,26.90
2018-07-05T18:00:24.035Z,26.80
2018-07-05T18:03:29.438Z,26.70
2018-07-05T18:06:35.502Z,26.60
2018-07-05T18:09:42.030Z,26.50
2018-07-05T18:12:46.914Z,26.40
2018-07-05T18:15:51.678Z,26.20
2018-07-05T18:18:56.286Z,26.10
2018-07-05T18:22:01.259Z,26.10
2018-07-05T18:25:09.764Z,26.00
2018-07-05T18:28:14.346Z,25.90
2018-07-05T18:31:18.807Z,25.70
2018-07-05T18:34:24.762Z,25.60
2018-07-05T18:37:29.293Z,25.50
2018-07-05T18:40:34.139Z,25.50
2018-07-05T18:43:39.615Z,25.40
2018-07-05T18:46:44.300Z,25.30
2018-07-05T18:49:51.540Z,25.30
2018-07-05T18:52:59.787Z,25.20
2018-07-05T18:56:06.056Z,25.10
2018-07-05T18:59:12.625Z,25.10
2018-07-05T19:02:17.602Z,25.00
2018-07-05T19:05:22.439Z,24.90
2018-07-05T19:08:33.283Z,24.80
2018-07-05T19:11:37.664Z,24.80
2018-07-05T19:14:43.277Z,24.70
2018-07-05T19:17:47.921Z,24.60
2018-07-05T19:20:55.284Z,24.50
2018-07-05T19:24:03.731Z,24.40
2018-07-05T19:27:09.214Z,24.40
2018-07-05T19:30:18.146Z,24.40
2018-07-05T19:33:28.862Z,24.40
2018-07-05T19:36:35.491Z,24.50
2018-07-05T19:39:40.965Z,24.40
2018-07-05T19:42:46.126Z,24.30
2018-07-05T19:45:51.129Z,24.10
2018-07-05T19:48:55.471Z,24.10
2018-07-05T19:52:03.457Z,24.00
2018-07-05T19:55:08.223Z,24.00
2018-07-05T19:58:12.668Z,24.00
2018-07-05T20:01:16.968Z,24.00
2018-07-05T20:04:22.693Z,24.00
2018-07-05T20:07:28.045Z,23.90
2018-07-05T20:10:32.852Z,23.90
2018-07-05T20:13:39.597Z,23.90
2018-07-05T20:16:44.924Z,23.90
2018-07-05T20:19:53.941Z,23.90
2018-07-05T20:22:58.921Z,23.80
2018-07-05T20:26:03.238Z,23.80
2018-07-05T20:29:07.856Z,23.80
2018-07-05T20:32:14.356Z,23.80
2018-07-05T20:35:19.090Z,23.80
2018-07-05T20:38:25.743Z,23.90
2018-07-05T20:41:31.257Z,23.80
2018-07-05T20:44:35.796Z,23.70
2018-07-05T20:47:41.557Z,23.80
2018-07-05T20:50:45.943Z,23.70
2018-07-05T20:53:56.552Z,23.70
2018-07-05T21:00:01.118Z,23.80
2018-07-05T21:03:07.804Z,23.80
2018-07-05T21:06:12.102Z,23.70
2018-07-05T21:09:18.037Z,23.70
2018-07-05T21:12:22.995Z,23.60
2018-07-05T21:15:28.708Z,23.60
2018-07-05T21:18:38.755Z,23.60
2018-07-05T21:21:43.860Z,23.50
2018-07-05T21:24:49.312Z,23.50
2018-07-05T21:27:54.952Z,23.40
2018-07-05T21:31:00.281Z,23.40
2018-07-05T21:34:04.785Z,23.40
2018-07-05T21:37:09.341Z,23.40
2018-07-05T21:40:14.980Z,23.30
2018-07-05T21:43:19.320Z,23.30
2018-07-05T21:46:23.993Z,23.30
2018-07-05T21:49:37.251Z,23.20
2018-07-05T21:52:42.272Z,23.20
2018-07-05T21:55:46.617Z,23.10
2018-07-05T21:58:51.360Z,23.10
2018-07-05T22:01:55.783Z,23.10
2018-07-05T22:05:04.050Z,23.00
2018-07-05T22:08:08.703Z,23.00
2018-07-05T22:11:15.009Z,23.00
2018-07-05T22:14:21.366Z,23.00
2018-07-05T22:17:31.140Z,23.00
2018-07-05T22:20:41.557Z,23.00
2018-07-05T22:23:52.938Z,23.00
2018-07-05T22:26:57.265Z,23.00
2018-07-05T22:30:07.144Z,23.10
2018-07-05T22:33:11.853Z,23.10
2018-07-05T22:36:18.019Z,23.10
2018-07-05T22:39:22.481Z,23.20
2018-07-05T22:42:27.005Z,23.20
2018-07-05T22:45:31.444Z,23.20
2018-07-05T22:48:35.797Z,23.20
2018-07-05T22:51:41.292Z,23.20
2018-07-05T22:54:45.872Z,23.30
2018-07-05T22:57:50.093Z,23.20
2018-07-05T23:00:57.029Z,23.20
2018-07-05T23:04:02.453Z,23.30
2018-07-05T23:07:06.827Z,23.30
2018-07-05T23:10:13.082Z,23.30
2018-07-05T23:13:18.737Z,23.40
2018-07-05T23:16:24.136Z,23.30
2018-07-05T23:19:29.932Z,23.30
2018-07-05T23:22:35.774Z,23.30
2018-07-05T23:25:40.141Z,23.30
2018-07-05T23:28:45.853Z,23.30
2018-07-05T23:31:51.831Z,23.20
2018-07-05T23:34:56.870Z,23.20
2018-07-05T23:38:01.324Z,23.20
2018-07-05T23:41:05.968Z,23.20
2018-07-05T23:44:11.320Z,23.10
2018-07-05T23:47:16.249Z,23.20
2018-07-05T23:50:22.271Z,23.10
2018-07-05T23:53:27.220Z,23.10
2018-07-05T23:56:32.572Z,23.00
2018-07-05T23:59:37.474Z,22.90
